createdAt,value
2018-09-30T00:02:32.900Z,102226.08
2018-09-30T00:05:09.840Z,102219.87
2018-09-30T00:07:47.491Z,102222.00
2018-09-30T00:10:25.033Z,102221.55
2018-09-30T00:13:08.320Z,102215.84
2018-09-30T00:15:45.517Z,102214.89
2018-09-30T00:18:23.433Z,102211.40
2018-09-30T00:20:57.982Z,102213.59
2018-09-30T00:23:41.130Z,102205.66
2018-09-30T00:27:23.535Z,102203.31
2018-09-30T00:29:55.917Z,102200.84
2018-09-30T00:32:25.448Z,102195.53
2018-09-30T00:34:55.013Z,102188.52
2018-09-30T00:37:24.541Z,102183.20
2018-09-30T00:39:54.074Z,102177.40
2018-09-30T00:42:23.589Z,102180.36
2018-09-30T00:44:53.138Z,102176.36
2018-09-30T00:47:22.669Z,102170.65
2018-09-30T00:49:52.205Z,102161.91
2018-09-30T00:52:21.717Z,102165.70
2018-09-30T00:54:51.231Z,102163.45
2018-09-30T00:57:20.722Z,102157.34
2018-09-30T00:59:50.264Z,102151.25
2018-09-30T01:02:28.667Z,102151.13
2018-09-30T01:04:58.182Z,102148.41
2018-09-30T01:07:27.693Z,102147.98
2018-09-30T01:09:57.202Z,102153.17
2018-09-30T01:12:26.753Z,102157.55
2018-09-30T01:14:56.280Z,102158.84
2018-09-30T01:17:25.868Z,102151.97
2018-09-30T01:19:55.373Z,102145.09
2018-09-30T01:22:24.877Z,102146.48
2018-09-30T01:24:54.405Z,102137.36
2018-09-30T01:27:23.965Z,102138.30
2018-09-30T01:29:53.468Z,102136.21
2018-09-30T01:32:22.942Z,102134.55
2018-09-30T01:34:52.459Z,102135.03
2018-09-30T01:37:21.994Z,102134.19
2018-09-30T01:39:51.561Z,102130.77
2018-09-30T01:42:21.093Z,102126.84
2018-09-30T01:44:50.568Z,102128.18
2018-09-30T01:47:20.172Z,102129.98
2018-09-30T01:49:49.704Z,102125.58
2018-09-30T01:52:36.020Z,102125.64
2018-09-30T01:55:06.565Z,102124.27
2018-09-30T01:57:36.096Z,102115.98
2018-09-30T02:00:06.246Z,102119.84
2018-09-30T02:02:35.748Z,102112.34
2018-09-30T02:05:05.372Z,102114.82
2018-09-30T02:07:34.906Z,102104.30
2018-09-30T02:10:04.640Z,102104.66
2018-09-30T02:12:34.200Z,102111.95
2018-09-30T02:15:03.787Z,102109.72
2018-09-30T02:17:33.730Z,102100.84
2018-09-30T02:20:03.322Z,102103.75
2018-09-30T02:22:32.863Z,102104.11
2018-09-30T02:25:02.402Z,102104.83
2018-09-30T02:27:31.941Z,102106.56
2018-09-30T02:30:01.473Z,102108.74
2018-09-30T02:32:31.004Z,102107.08
2018-09-30T02:35:00.509Z,102106.30
2018-09-30T02:37:30.014Z,102103.75
2018-09-30T02:39:59.592Z,102103.39
2018-09-30T02:42:29.104Z,102104.34
2018-09-30T02:44:58.614Z,102098.77
2018-09-30T02:47:28.162Z,102101.40
2018-09-30T02:49:57.665Z,102100.16
2018-09-30T02:52:27.287Z,102092.33
2018-09-30T02:54:56.808Z,102087.61
2018-09-30T02:57:26.305Z,102086.75
2018-09-30T02:59:55.802Z,102086.82
2018-09-30T03:02:25.297Z,102078.66
2018-09-30T03:04:54.768Z,102077.58
2018-09-30T03:07:29.557Z,102062.95
2018-09-30T03:09:59.105Z,102060.98
2018-09-30T03:12:28.661Z,102058.04
2018-09-30T03:14:58.292Z,102052.09
2018-09-30T03:17:27.866Z,102050.87
2018-09-30T03:19:57.421Z,102047.08
2018-09-30T03:22:26.924Z,102042.38
2018-09-30T03:27:25.316Z,102032.53
2018-09-30T03:29:54.910Z,102018.66
2018-09-30T03:32:24.537Z,102015.70
2018-09-30T03:34:54.176Z,102017.58
2018-09-30T03:37:23.827Z,102015.03
2018-09-30T03:39:53.385Z,102009.89
2018-09-30T03:42:22.943Z,102010.13
2018-09-30T03:44:52.534Z,102006.28
2018-09-30T03:47:24.531Z,102006.85
2018-09-30T03:49:54.172Z,102003.87
2018-09-30T03:52:23.796Z,101999.16
2018-09-30T03:54:53.401Z,101985.16
2018-09-30T03:57:23.064Z,101991.94
2018-09-30T03:59:52.677Z,101982.81
2018-09-30T04:02:22.285Z,101987.28
2018-09-30T04:04:51.857Z,101980.77
2018-09-30T04:07:21.486Z,101981.70
2018-09-30T04:09:51.091Z,101980.39
2018-09-30T04:12:20.704Z,101975.00
2018-09-30T04:14:50.270Z,101967.83
2018-09-30T04:17:19.839Z,101968.16
2018-09-30T04:19:49.407Z,101967.66
2018-09-30T04:22:19.009Z,101970.19
2018-09-30T04:24:48.669Z,101965.73
2018-09-30T04:27:18.263Z,101969.63
2018-09-30T04:29:47.865Z,101964.30
2018-09-30T04:32:17.432Z,101955.94
2018-09-30T04:34:46.996Z,101957.00
2018-09-30T04:37:16.595Z,101950.59
2018-09-30T04:39:46.175Z,101950.81
2018-09-30T04:42:16.843Z,101958.89
2018-09-30T04:44:46.403Z,101950.41
2018-09-30T04:47:16.038Z,101947.15
2018-09-30T04:49:45.587Z,101944.77
2018-09-30T04:52:15.172Z,101951.59
2018-09-30T04:54:44.741Z,101938.83
2018-09-30T04:57:14.289Z,101934.34
2018-09-30T04:59:43.848Z,101938.48
2018-09-30T05:02:13.453Z,101935.31
2018-09-30T05:04:43.125Z,101933.44
2018-09-30T05:07:12.694Z,101932.50
2018-09-30T05:09:42.481Z,101936.78
2018-09-30T05:12:12.346Z,101926.69
2018-09-30T05:14:48.724Z,101927.42
2018-09-30T05:17:18.409Z,101924.67
2018-09-30T05:19:50.048Z,101908.88
2018-09-30T05:22:19.716Z,101914.88
2018-09-30T05:24:49.326Z,101914.31
2018-09-30T05:27:18.965Z,101914.16
2018-09-30T05:29:48.542Z,101906.65
2018-09-30T05:32:18.206Z,101901.86
2018-09-30T05:34:47.885Z,101916.14
2018-09-30T05:37:17.618Z,101912.23
2018-09-30T05:39:47.145Z,101908.31
2018-09-30T05:42:16.817Z,101907.86
2018-09-30T05:44:46.554Z,101905.70
2018-09-30T05:47:16.215Z,101897.86
2018-09-30T05:49:45.792Z,101896.95
2018-09-30T05:52:15.692Z,101892.13
2018-09-30T05:54:45.426Z,101899.95
2018-09-30T05:57:15.068Z,101896.50
2018-09-30T05:59:44.750Z,101890.43
2018-09-30T06:02:14.542Z,101889.27
2018-09-30T06:04:44.165Z,101891.20
2018-09-30T06:07:13.856Z,101897.87
2018-09-30T06:09:43.480Z,101896.71
2018-09-30T06:12:13.187Z,101898.16
2018-09-30T06:14:42.868Z,101891.27
2018-09-30T06:17:12.590Z,101892.66
2018-09-30T06:19:42.252Z,101887.13
2018-09-30T06:22:11.864Z,101891.13
2018-09-30T06:24:41.630Z,101884.29
2018-09-30T06:27:11.422Z,101890.52
2018-09-30T06:29:41.091Z,101893.84
2018-09-30T06:32:10.850Z,101882.28
2018-09-30T06:34:40.452Z,101883.38
2018-09-30T06:37:10.885Z,101891.02
2018-09-30T06:39:40.459Z,101887.73
2018-09-30T06:42:10.033Z,101876.71
2018-09-30T06:44:40.566Z,101873.85
2018-09-30T06:47:10.222Z,101879.33
2018-09-30T06:49:39.894Z,101876.53
2018-09-30T06:52:10.296Z,101870.68
2018-09-30T06:54:39.937Z,101876.20
2018-09-30T06:57:09.534Z,101880.86
2018-09-30T06:59:39.336Z,101877.72
2018-09-30T07:02:08.993Z,101879.41
2018-09-30T07:04:38.672Z,101866.23
2018-09-30T07:07:08.213Z,101869.67
2018-09-30T07:09:37.805Z,101872.21
2018-09-30T07:12:07.418Z,101874.34
2018-09-30T07:14:37.044Z,101872.08
2018-09-30T07:17:06.688Z,101873.80
2018-09-30T07:19:36.354Z,101872.81
2018-09-30T07:22:06.236Z,101867.01
2018-09-30T07:24:35.871Z,101869.53
2018-09-30T07:27:06.393Z,101870.33
2018-09-30T07:29:35.935Z,101872.80
2018-09-30T07:32:06.779Z,101870.00
2018-09-30T07:34:36.458Z,101867.16
2018-09-30T07:37:06.714Z,101863.87
2018-09-30T07:39:36.429Z,101870.70
2018-09-30T07:42:06.653Z,101869.20
2018-09-30T07:44:36.334Z,101868.55
2018-09-30T07:47:06.309Z,101873.13
2018-09-30T07:49:35.914Z,101868.50
2018-09-30T07:52:06.431Z,101869.12
2018-09-30T07:54:36.073Z,101857.86
2018-09-30T07:57:06.724Z,101865.49
2018-09-30T07:59:36.309Z,101864.36
2018-09-30T08:02:06.807Z,101861.45
2018-09-30T08:04:36.468Z,101845.77
2018-09-30T08:07:06.497Z,101844.95
2018-09-30T08:09:36.062Z,101845.38
2018-09-30T08:12:06.379Z,101846.30
2018-09-30T08:14:35.970Z,101849.48
2018-09-30T08:17:06.466Z,101852.64
2018-09-30T08:19:36.072Z,101847.76
2018-09-30T08:22:06.581Z,101847.28
2018-09-30T08:24:36.264Z,101837.20
2018-09-30T08:27:06.844Z,101838.13
2018-09-30T08:29:36.457Z,101835.99
2018-09-30T08:32:06.942Z,101836.47
2018-09-30T08:34:36.486Z,101840.48
2018-09-30T08:37:06.611Z,101839.20
2018-09-30T08:39:36.330Z,101833.99
2018-09-30T08:42:06.606Z,101837.98
2018-09-30T08:44:36.162Z,101836.69
2018-09-30T08:47:06.609Z,101839.34
2018-09-30T08:49:36.191Z,101831.95
2018-09-30T08:52:06.698Z,101837.23
2018-09-30T08:54:36.361Z,101832.86
2018-09-30T08:57:06.258Z,101831.57
2018-09-30T08:59:35.898Z,101834.65
2018-09-30T09:02:06.455Z,101837.27
2018-09-30T09:04:36.229Z,101834.19
2018-09-30T09:07:06.496Z,101837.70
2018-09-30T09:09:36.097Z,101831.96
2018-09-30T09:12:06.747Z,101824.02
2018-09-30T09:14:38.280Z,101826.65
2018-09-30T09:17:07.968Z,101837.21
2018-09-30T09:19:37.638Z,101840.27
2018-09-30T09:22:10.836Z,101827.00
2018-09-30T09:24:40.424Z,101828.27
2018-09-30T09:27:10.106Z,101826.51
2018-09-30T09:29:39.722Z,101820.72
2018-09-30T09:32:09.290Z,101803.50
2018-09-30T09:34:38.842Z,101810.06
2018-09-30T09:37:08.749Z,101813.49
2018-09-30T09:39:38.331Z,101805.00
2018-09-30T09:42:08.033Z,101805.45
2018-09-30T09:44:37.670Z,101796.19
2018-09-30T09:47:07.816Z,101795.31
2018-09-30T09:49:37.384Z,101794.41
2018-09-30T09:52:07.124Z,101801.94
2018-09-30T09:54:36.686Z,101792.64
2018-09-30T09:57:06.554Z,101790.86
2018-09-30T09:59:36.112Z,101783.71
2018-09-30T10:02:06.587Z,101785.82
2018-09-30T10:04:36.149Z,101781.34
2018-09-30T10:07:06.170Z,101777.33
2018-09-30T10:09:35.774Z,101777.73
2018-09-30T10:12:06.319Z,101771.02
2018-09-30T10:14:36.557Z,101768.23
2018-09-30T10:17:06.402Z,101767.72
2018-09-30T10:19:36.125Z,101768.12
2018-09-30T10:22:06.629Z,101764.09
2018-09-30T10:24:36.236Z,101761.89
2018-09-30T10:27:06.546Z,101763.56
2018-09-30T10:29:36.146Z,101759.98
2018-09-30T10:32:06.359Z,101760.86
2018-09-30T10:34:35.942Z,101752.86
2018-09-30T10:37:06.437Z,101757.61
2018-09-30T10:39:36.060Z,101747.16
2018-09-30T10:42:06.550Z,101748.66
2018-09-30T10:44:36.380Z,101740.80
2018-09-30T10:47:09.828Z,101740.95
2018-09-30T10:49:39.507Z,101736.23
2018-09-30T10:52:09.184Z,101732.56
2018-09-30T10:54:38.766Z,101733.52
2018-09-30T10:57:08.452Z,101730.98
2018-09-30T10:59:38.132Z,101725.76
2018-09-30T11:02:07.810Z,101724.92
2018-09-30T11:04:37.394Z,101720.12
2018-09-30T11:07:07.201Z,101712.64
2018-09-30T11:09:36.873Z,101716.21
2018-09-30T11:12:06.741Z,101712.34
2018-09-30T11:14:36.409Z,101704.04
2018-09-30T11:17:06.950Z,101711.55
2018-09-30T11:19:36.792Z,101705.69
2018-09-30T11:22:06.625Z,101702.94
2018-09-30T11:24:36.263Z,101706.56
2018-09-30T11:27:06.637Z,101692.45
2018-09-30T11:29:36.207Z,101704.41
2018-09-30T11:32:06.457Z,101685.21
2018-09-30T11:34:36.077Z,101683.85
2018-09-30T11:37:06.647Z,101684.09
2018-09-30T11:39:36.811Z,101678.98
2018-09-30T11:42:06.807Z,101678.66
2018-09-30T11:44:36.425Z,101672.98
2018-09-30T11:47:06.328Z,101653.20
2018-09-30T11:49:35.919Z,101683.12
2018-09-30T11:52:06.381Z,101674.18
2018-09-30T11:54:36.075Z,101682.86
2018-09-30T11:57:05.823Z,101672.70
2018-09-30T11:59:35.475Z,101664.36
2018-09-30T12:02:05.186Z,101670.22
2018-09-30T12:04:34.998Z,101662.09
2018-09-30T12:07:04.785Z,101667.08
2018-09-30T12:09:35.435Z,101653.31
2018-09-30T12:12:06.287Z,101640.17
2018-09-30T12:14:35.911Z,101652.94
2018-09-30T12:17:06.406Z,101647.64
2018-09-30T12:19:36.338Z,101634.09
2018-09-30T12:22:06.597Z,101635.01
2018-09-30T12:24:36.144Z,101642.91
2018-09-30T12:27:06.744Z,101635.50
2018-09-30T12:29:38.840Z,101628.45
2018-09-30T12:32:08.829Z,101627.33
2018-09-30T12:34:38.444Z,101621.51
2018-09-30T12:37:08.092Z,101615.56
2018-09-30T12:39:37.695Z,101622.05
2018-09-30T12:42:07.321Z,101621.52
2018-09-30T12:44:36.873Z,101614.23
2018-09-30T12:47:06.486Z,101608.75
2018-09-30T12:49:36.059Z,101610.64
2018-09-30T12:52:08.228Z,101610.16
2018-09-30T12:54:38.164Z,101610.58
2018-09-30T12:57:07.782Z,101608.02
2018-09-30T12:59:37.539Z,101602.78
2018-09-30T13:02:07.163Z,101602.78
2018-09-30T13:04:36.787Z,101605.56
2018-09-30T13:07:06.474Z,101604.38
2018-09-30T13:09:36.206Z,101599.55
2018-09-30T13:12:06.555Z,101597.88
2018-09-30T13:14:36.287Z,101597.95
2018-09-30T13:17:09.341Z,101603.27
2018-09-30T13:19:40.175Z,101604.03
2018-09-30T13:22:10.040Z,101601.21
2018-09-30T13:24:39.708Z,101594.94
2018-09-30T13:27:09.407Z,101597.98
2018-09-30T13:29:39.020Z,101601.05
2018-09-30T13:32:08.665Z,101595.64
2018-09-30T13:34:38.342Z,101590.23
2018-09-30T13:37:07.978Z,101588.75
2018-09-30T13:39:37.570Z,101592.83
2018-09-30T13:42:07.366Z,101586.59
2018-09-30T13:44:37.021Z,101587.27
2018-09-30T13:47:06.981Z,101583.45
2018-09-30T13:49:36.782Z,101579.64
2018-09-30T13:52:06.419Z,101587.31
2018-09-30T13:54:36.175Z,101582.84
2018-09-30T13:57:08.065Z,101583.22
2018-09-30T13:59:37.842Z,101584.16
2018-09-30T14:02:07.529Z,101581.42
2018-09-30T14:04:37.930Z,101579.88
2018-09-30T14:07:07.700Z,101576.63
2018-09-30T14:09:37.285Z,101586.34
2018-09-30T14:12:07.015Z,101582.59
2018-09-30T14:14:36.719Z,101575.05
2018-09-30T14:17:06.470Z,101570.83
2018-09-30T14:19:36.129Z,101572.12
2018-09-30T14:22:06.736Z,101566.80
2018-09-30T14:24:36.438Z,101565.81
2018-09-30T14:27:06.898Z,101572.34
2018-09-30T14:29:36.458Z,101566.09
2018-09-30T14:32:07.541Z,101564.22
2018-09-30T14:34:37.171Z,101568.61
2018-09-30T14:37:06.895Z,101566.80
2018-09-30T14:39:36.605Z,101555.40
2018-09-30T14:42:06.758Z,101573.54
2018-09-30T14:44:36.420Z,101567.20
2018-09-30T14:47:06.676Z,101559.92
2018-09-30T14:49:36.284Z,101555.94
2018-09-30T14:52:06.815Z,101555.81
2018-09-30T14:54:37.669Z,101546.48
2018-09-30T14:57:07.397Z,101543.25
2018-09-30T14:59:36.992Z,101540.52
2018-09-30T15:02:06.613Z,101540.16
2018-09-30T15:04:38.630Z,101538.88
2018-09-30T15:07:08.504Z,101537.64
2018-09-30T15:09:38.034Z,101537.55
2018-09-30T15:12:07.723Z,101533.55
2018-09-30T15:14:37.306Z,101529.91
2018-09-30T15:17:06.992Z,101524.22
2018-09-30T15:19:37.030Z,101528.63
2018-09-30T15:22:09.988Z,101519.17
2018-09-30T15:24:39.739Z,101531.87
2018-09-30T15:27:09.638Z,101520.16
2018-09-30T15:29:39.244Z,101522.32
2018-09-30T15:32:08.949Z,101507.71
2018-09-30T15:34:38.570Z,101516.72
2018-09-30T15:37:08.510Z,101513.84
2018-09-30T15:39:38.161Z,101509.81
2018-09-30T15:42:08.302Z,101516.88
2018-09-30T15:44:38.972Z,101513.27
2018-09-30T15:47:08.669Z,101515.70
2018-09-30T15:49:38.421Z,101506.23
2018-09-30T15:52:08.288Z,101508.79
2018-09-30T15:54:38.014Z,101512.67
2018-09-30T15:57:07.722Z,101517.90
2018-09-30T15:59:39.076Z,101516.83
2018-09-30T16:02:08.766Z,101512.29
2018-09-30T16:04:38.494Z,101506.09
2018-09-30T16:07:08.402Z,101504.78
2018-09-30T16:09:38.267Z,101500.98
2018-09-30T16:12:08.013Z,101501.55
2018-09-30T16:14:37.677Z,101507.48
2018-09-30T16:17:07.588Z,101515.61
2018-09-30T16:19:37.257Z,101508.81
2018-09-30T16:22:06.889Z,101510.53
2018-09-30T16:24:36.777Z,101510.29
2018-09-30T16:27:06.814Z,101514.86
2018-09-30T16:29:36.438Z,101509.18
2018-09-30T16:32:06.236Z,101512.61
2018-09-30T16:34:36.007Z,101512.03
2018-09-30T16:37:07.427Z,101515.83
2018-09-30T16:39:37.047Z,101516.03
2018-09-30T16:42:06.778Z,101513.52
2018-09-30T16:44:36.478Z,101526.00
2018-09-30T16:47:06.837Z,101521.70
2018-09-30T16:49:36.514Z,101527.11
2018-09-30T16:52:06.725Z,101525.00
2018-09-30T16:54:36.359Z,101525.16
2018-09-30T16:57:06.388Z,101529.28
2018-09-30T16:59:37.005Z,101531.62
2018-09-30T17:02:06.902Z,101528.69
2018-09-30T17:04:36.578Z,101527.05
2018-09-30T17:07:06.673Z,101526.67
2018-09-30T17:09:36.543Z,101521.05
2018-09-30T17:12:06.614Z,101528.59
2018-09-30T17:14:36.459Z,101528.14
2018-09-30T17:17:06.720Z,101522.93
2018-09-30T17:19:36.624Z,101524.28
2018-09-30T17:22:06.376Z,101531.36
2018-09-30T17:24:35.977Z,101521.70
2018-09-30T17:27:06.510Z,101526.98
2018-09-30T17:29:36.232Z,101531.87
2018-09-30T17:32:06.662Z,101535.83
2018-09-30T17:34:36.338Z,101529.68
2018-09-30T17:37:06.769Z,101531.90
2018-09-30T17:39:36.583Z,101533.22
2018-09-30T17:42:06.350Z,101520.44
2018-09-30T17:44:36.371Z,101524.85
2018-09-30T17:47:08.761Z,101523.50
2018-09-30T17:49:41.663Z,101523.05
2018-09-30T17:52:11.467Z,101520.41
2018-09-30T17:54:41.270Z,101526.14
2018-09-30T17:57:10.926Z,101523.50
2018-09-30T17:59:40.654Z,101526.59
2018-09-30T18:02:10.276Z,101529.65
2018-09-30T18:04:39.935Z,101522.63
2018-09-30T18:07:09.626Z,101528.81
2018-09-30T18:09:39.271Z,101522.20
2018-09-30T18:12:08.933Z,101529.29
2018-09-30T18:14:40.021Z,101534.56
2018-09-30T18:17:09.833Z,101528.41
2018-09-30T18:19:39.487Z,101528.45
2018-09-30T18:22:09.865Z,101530.18
2018-09-30T18:24:39.503Z,101525.34
2018-09-30T18:27:09.163Z,101527.57
2018-09-30T18:29:38.933Z,101528.47
2018-09-30T18:32:08.600Z,101524.50
2018-09-30T18:34:38.317Z,101525.41
2018-09-30T18:37:08.010Z,101520.58
2018-09-30T18:39:37.881Z,101518.80
2018-09-30T18:42:08.141Z,101520.59
2018-09-30T18:44:37.787Z,101524.13
2018-09-30T18:47:07.590Z,101524.13
2018-09-30T18:49:37.193Z,101520.22
2018-09-30T18:52:07.806Z,101519.33
2018-09-30T18:54:37.530Z,101521.99
2018-09-30T18:57:07.326Z,101516.74
2018-09-30T18:59:36.932Z,101518.08
2018-09-30T19:02:06.494Z,101513.69
2018-09-30T19:04:36.126Z,101516.34
2018-09-30T19:07:06.707Z,101511.52
2018-09-30T19:09:36.374Z,101516.34
2018-09-30T19:12:06.810Z,101514.59
2018-09-30T19:14:36.505Z,101518.09
2018-09-30T19:17:07.134Z,101507.13
2018-09-30T19:19:36.794Z,101508.47
2018-09-30T19:22:06.835Z,101510.23
2018-09-30T19:24:36.507Z,101513.75
2018-09-30T19:27:08.435Z,101515.92
2018-09-30T19:29:38.156Z,101516.80
2018-09-30T19:32:08.022Z,101519.89
2018-09-30T19:34:37.701Z,101511.55
2018-09-30T19:37:08.949Z,101513.34
2018-09-30T19:39:38.593Z,101507.21
2018-09-30T19:42:08.303Z,101508.52
2018-09-30T19:44:37.889Z,101510.73
2018-09-30T19:47:07.684Z,101502.83
2018-09-30T19:49:37.376Z,101504.15
2018-09-30T19:52:06.986Z,101502.83
2018-09-30T19:54:36.731Z,101505.91
2018-09-30T19:57:08.773Z,101503.25
2018-09-30T19:59:38.482Z,101511.17
2018-09-30T20:02:08.615Z,101511.16
2018-09-30T20:04:38.308Z,101506.80
2018-09-30T20:07:07.968Z,101506.78
2018-09-30T20:09:37.639Z,101500.63
2018-09-30T20:12:09.831Z,101497.98
2018-09-30T20:14:39.758Z,101495.81
2018-09-30T20:17:09.501Z,101494.48
2018-09-30T20:19:40.104Z,101497.13
2018-09-30T20:22:11.663Z,101498.02
2018-09-30T20:24:41.708Z,101499.75
2018-09-30T20:27:11.399Z,101499.30
2018-09-30T20:29:41.307Z,101491.84
2018-09-30T20:32:11.006Z,101488.33
2018-09-30T20:34:40.819Z,101490.54
2018-09-30T20:37:10.600Z,101487.45
2018-09-30T20:39:40.358Z,101487.89
2018-09-30T20:42:10.179Z,101480.45
2018-09-30T20:44:40.398Z,101486.16
2018-09-30T20:47:10.113Z,101493.60
2018-09-30T20:49:39.887Z,101485.27
2018-09-30T20:52:09.654Z,101484.39
2018-09-30T20:54:39.447Z,101486.16
2018-09-30T20:57:09.128Z,101485.28
2018-09-30T20:59:38.762Z,101481.77
2018-09-30T21:02:08.477Z,101485.70
2018-09-30T21:04:38.123Z,101487.02
2018-09-30T21:07:07.815Z,101487.02
2018-09-30T21:09:37.495Z,101491.41
2018-09-30T21:12:06.871Z,101483.96
2018-09-30T21:14:36.624Z,101484.81
2018-09-30T21:17:06.930Z,101485.70
2018-09-30T21:19:36.637Z,101466.82
2018-09-30T21:22:06.760Z,101483.06
2018-09-30T21:24:37.012Z,101479.12
2018-09-30T21:27:08.976Z,101477.35
2018-09-30T21:29:38.592Z,101483.08
2018-09-30T21:32:08.380Z,101477.80
2018-09-30T21:34:38.123Z,101488.34
2018-09-30T21:37:07.848Z,101481.30
2018-09-30T21:39:37.643Z,101487.88
2018-09-30T21:42:09.915Z,101486.14
2018-09-30T21:44:39.649Z,101484.37
2018-09-30T21:47:09.430Z,101483.50
2018-09-30T21:49:38.994Z,101484.81
2018-09-30T21:52:09.057Z,101483.92
2018-09-30T21:54:38.729Z,101482.19
2018-09-30T21:57:08.459Z,101487.86
2018-09-30T21:59:38.068Z,101490.94
2018-09-30T22:02:07.760Z,101481.30
2018-09-30T22:04:37.371Z,101492.27
2018-09-30T22:07:07.177Z,101487.44
2018-09-30T22:09:36.897Z,101485.19
2018-09-30T22:12:06.440Z,101482.97
2018-09-30T22:14:36.076Z,101478.99
2018-09-30T22:17:06.409Z,101479.00
2018-09-30T22:19:36.118Z,101475.05
2018-09-30T22:22:07.058Z,101478.55
2018-09-30T22:24:36.650Z,101477.64
2018-09-30T22:27:06.694Z,101483.33
2018-09-30T22:29:36.261Z,101485.98
2018-09-30T22:32:06.693Z,101478.53
2018-09-30T22:34:36.497Z,101470.18
2018-09-30T22:37:06.819Z,101482.03
2018-09-30T22:39:36.397Z,101475.88
2018-09-30T22:42:06.326Z,101477.59
2018-09-30T22:44:35.902Z,101477.56
2018-09-30T22:47:06.615Z,101483.27
2018-09-30T22:49:36.252Z,101477.08
2018-09-30T22:52:06.704Z,101473.58
2018-09-30T22:54:36.325Z,101473.58
2018-09-30T22:57:06.953Z,101466.10
2018-09-30T22:59:36.554Z,101464.30
2018-09-30T23:02:08.734Z,101462.11
2018-09-30T23:04:38.355Z,101459.89
2018-09-30T23:07:08.109Z,101459.45
2018-09-30T23:09:46.023Z,101459.91
2018-09-30T23:12:25.347Z,101461.63
2018-09-30T23:15:03.113Z,101455.94
2018-09-30T23:17:40.798Z,101462.97
2018-09-30T23:20:20.155Z,101451.12
2018-09-30T23:22:57.562Z,101466.02
2018-09-30T23:25:35.997Z,101465.13
2018-09-30T23:28:14.869Z,101456.36
2018-09-30T23:30:53.278Z,101460.72
2018-09-30T23:33:30.125Z,101457.63
2018-09-30T23:36:07.586Z,101462.41
2018-09-30T23:38:46.587Z,101465.89
2018-09-30T23:41:25.777Z,101465.87
2018-09-30T23:44:03.789Z,101470.22
2018-09-30T23:46:42.030Z,101461.83
2018-09-30T23:49:19.495Z,101460.91
2018-09-30T23:51:55.753Z,101457.31
2018-09-30T23:54:33.850Z,101459.89
2018-09-30T23:57:12.345Z,101453.70
2018-09-30T23:59:50.608Z,101455.83
